sensor_id;sensor_type;location;lat;lon;timestamp;P1;durP1;ratioP1;P2;durP2;ratioP2
37647;SDS011;23490;53.656;10.076;2022-12-20T00:01:13;8.98;;;5.30;;
37647;SDS011;23490;53.656;10.076;2022-12-20T00:03:41;12.32;;;5.80;;
37647;SDS011;23490;53.656;10.076;2022-12-20T00:06:07;9.57;;;5.18;;
37647;SDS011;23490;53.656;10.076;2022-12-20T00:08:32;10.02;;;5.20;;
37647;SDS011;23490;53.656;10.076;2022-12-20T00:10:59;10.35;;;5.18;;
37647;SDS011;23490;53.656;10.076;2022-12-20T00:13:26;9.52;;;5.32;;
37647;SDS011;23490;53.656;10.076;2022-12-20T00:18:35;12.05;;;6.18;;
37647;SDS011;23490;53.656;10.076;2022-12-20T00:21:02;10.57;;;5.25;;
37647;SDS011;23490;53.656;10.076;2022-12-20T00:23:28;8.30;;;5.53;;
37647;SDS011;23490;53.656;10.076;2022-12-20T00:26:07;10.63;;;5.32;;
37647;SDS011;23490;53.656;10.076;2022-12-20T00:28:33;8.52;;;4.68;;
37647;SDS011;23490;53.656;10.076;2022-12-20T00:30:59;8.77;;;5.00;;
37647;SDS011;23490;53.656;10.076;2022-12-20T00:33:25;9.27;;;5.05;;
37647;SDS011;23490;53.656;10.076;2022-12-20T00:35:51;8.38;;;4.60;;
37647;SDS011;23490;53.656;10.076;2022-12-20T00:38:19;8.52;;;4.82;;
37647;SDS011;23490;53.656;10.076;2022-12-20T00:40:44;9.98;;;5.18;;
37647;SDS011;23490;53.656;10.076;2022-12-20T00:43:09;9.55;;;5.05;;
37647;SDS011;23490;53.656;10.076;2022-12-20T00:45:35;11.05;;;5.30;;
37647;SDS011;23490;53.656;10.076;2022-12-20T00:48:00;13.38;;;5.70;;
37647;SDS011;23490;53.656;10.076;2022-12-20T00:50:25;8.13;;;4.63;;
37647;SDS011;23490;53.656;10.076;2022-12-20T00:52:51;12.15;;;5.60;;
37647;SDS011;23490;53.656;10.076;2022-12-20T00:55:16;9.10;;;5.10;;
37647;SDS011;23490;53.656;10.076;2022-12-20T00:57:41;8.27;;;5.38;;
37647;SDS011;23490;53.656;10.076;2022-12-20T01:00:07;13.07;;;5.28;;
37647;SDS011;23490;53.656;10.076;2022-12-20T01:02:33;8.45;;;4.78;;
37647;SDS011;23490;53.656;10.076;2022-12-20T01:04:58;10.52;;;5.18;;
37647;SDS011;23490;53.656;10.076;2022-12-20T01:07:23;10.45;;;5.43;;
37647;SDS011;23490;53.656;10.076;2022-12-20T01:09:49;8.13;;;4.45;;
37647;SDS011;23490;53.656;10.076;2022-12-20T01:12:15;10.57;;;5.15;;
37647;SDS011;23490;53.656;10.076;2022-12-20T01:14:40;11.88;;;5.18;;
37647;SDS011;23490;53.656;10.076;2022-12-20T01:17:06;10.75;;;5.30;;
37647;SDS011;23490;53.656;10.076;2022-12-20T01:19:31;12.88;;;5.60;;
37647;SDS011;23490;53.656;10.076;2022-12-20T01:21:57;10.32;;;5.38;;
37647;SDS011;23490;53.656;10.076;2022-12-20T01:24:22;9.02;;;5.43;;
37647;SDS011;23490;53.656;10.076;2022-12-20T01:26:48;11.13;;;5.40;;
37647;SDS011;23490;53.656;10.076;2022-12-20T01:29:13;10.85;;;5.95;;
37647;SDS011;23490;53.656;10.076;2022-12-20T01:31:39;9.57;;;5.13;;
37647;SDS011;23490;53.656;10.076;2022-12-20T01:34:05;11.95;;;5.55;;
37647;SDS011;23490;53.656;10.076;2022-12-20T01:36:31;8.98;;;5.22;;
37647;SDS011;23490;53.656;10.076;2022-12-20T01:38:59;10.52;;;5.13;;
37647;SDS011;23490;53.656;10.076;2022-12-20T01:41:27;9.25;;;5.30;;
37647;SDS011;23490;53.656;10.076;2022-12-20T01:43:56;10.15;;;5.38;;
37647;SDS011;23490;53.656;10.076;2022-12-20T01:46:24;10.40;;;5.38;;
37647;SDS011;23490;53.656;10.076;2022-12-20T01:49:02;11.70;;;5.57;;
37647;SDS011;23490;53.656;10.076;2022-12-20T01:51:35;10.55;;;5.60;;
37647;SDS011;23490;53.656;10.076;2022-12-20T01:54:09;8.77;;;4.72;;
37647;SDS011;23490;53.656;10.076;2022-12-20T01:56:38;11.35;;;5.10;;
37647;SDS011;23490;53.656;10.076;2022-12-20T01:59:07;9.15;;;4.70;;
37647;SDS011;23490;53.656;10.076;2022-12-20T02:01:33;8.88;;;5.15;;
37647;SDS011;23490;53.656;10.076;2022-12-20T02:03:58;13.20;;;5.13;;
37647;SDS011;23490;53.656;10.076;2022-12-20T02:06:24;9.93;;;4.80;;
37647;SDS011;23490;53.656;10.076;2022-12-20T02:08:51;9.18;;;4.80;;
37647;SDS011;23490;53.656;10.076;2022-12-20T02:16:56;8.23;;;4.25;;
37647;SDS011;23490;53.656;10.076;2022-12-20T02:22:51;8.60;;;3.97;;
37647;SDS011;23490;53.656;10.076;2022-12-20T02:25:41;9.15;;;4.82;;
37647;SDS011;23490;53.656;10.076;2022-12-20T02:31:03;8.90;;;4.72;;
37647;SDS011;23490;53.656;10.076;2022-12-20T02:33:33;9.93;;;4.70;;
37647;SDS011;23490;53.656;10.076;2022-12-20T02:35:58;11.88;;;4.35;;
37647;SDS011;23490;53.656;10.076;2022-12-20T02:38:26;8.60;;;4.93;;
37647;SDS011;23490;53.656;10.076;2022-12-20T02:40:57;10.50;;;5.50;;
37647;SDS011;23490;53.656;10.076;2022-12-20T02:43:27;8.10;;;4.60;;
37647;SDS011;23490;53.656;10.076;2022-12-20T02:46:14;10.18;;;5.07;;
37647;SDS011;23490;53.656;10.076;2022-12-20T02:48:42;7.90;;;4.30;;
37647;SDS011;23490;53.656;10.076;2022-12-20T02:51:08;7.43;;;4.28;;
37647;SDS011;23490;53.656;10.076;2022-12-20T02:53:35;8.00;;;4.50;;
37647;SDS011;23490;53.656;10.076;2022-12-20T02:56:07;9.65;;;5.75;;
37647;SDS011;23490;53.656;10.076;2022-12-20T03:01:11;10.02;;;4.45;;
37647;SDS011;23490;53.656;10.076;2022-12-20T03:03:41;9.25;;;4.75;;
37647;SDS011;23490;53.656;10.076;2022-12-20T03:06:07;9.30;;;4.57;;
37647;SDS011;23490;53.656;10.076;2022-12-20T03:08:33;9.77;;;4.40;;
37647;SDS011;23490;53.656;10.076;2022-12-20T03:10:58;9.32;;;4.45;;
37647;SDS011;23490;53.656;10.076;2022-12-20T03:13:24;8.85;;;4.25;;
37647;SDS011;23490;53.656;10.076;2022-12-20T03:15:49;10.27;;;4.35;;
37647;SDS011;23490;53.656;10.076;2022-12-20T03:18:15;9.25;;;4.53;;
37647;SDS011;23490;53.656;10.076;2022-12-20T03:20:41;6.80;;;4.28;;
37647;SDS011;23490;53.656;10.076;2022-12-20T03:23:06;9.73;;;4.82;;
37647;SDS011;23490;53.656;10.076;2022-12-20T03:25:32;8.07;;;4.28;;
37647;SDS011;23490;53.656;10.076;2022-12-20T03:27:57;9.32;;;4.82;;
37647;SDS011;23490;53.656;10.076;2022-12-20T03:30:22;7.97;;;3.80;;
37647;SDS011;23490;53.656;10.076;2022-12-20T03:32:48;7.80;;;3.95;;
37647;SDS011;23490;53.656;10.076;2022-12-20T03:35:13;7.80;;;4.13;;
37647;SDS011;23490;53.656;10.076;2022-12-20T03:37:38;6.72;;;3.65;;
37647;SDS011;23490;53.656;10.076;2022-12-20T03:40:04;9.07;;;4.30;;
37647;SDS011;23490;53.656;10.076;2022-12-20T03:42:30;9.75;;;4.50;;
37647;SDS011;23490;53.656;10.076;2022-12-20T03:44:56;6.57;;;4.15;;
37647;SDS011;23490;53.656;10.076;2022-12-20T03:47:21;8.30;;;3.47;;
37647;SDS011;23490;53.656;10.076;2022-12-20T03:49:47;6.47;;;3.58;;
37647;SDS011;23490;53.656;10.076;2022-12-20T03:52:13;6.43;;;3.55;;
37647;SDS011;23490;53.656;10.076;2022-12-20T03:54:39;7.03;;;3.88;;
37647;SDS011;23490;53.656;10.076;2022-12-20T03:57:05;6.40;;;3.67;;
37647;SDS011;23490;53.656;10.076;2022-12-20T03:59:30;6.93;;;3.45;;
37647;SDS011;23490;53.656;10.076;2022-12-20T04:01:56;6.85;;;3.67;;
37647;SDS011;23490;53.656;10.076;2022-12-20T04:04:21;7.30;;;3.65;;
37647;SDS011;23490;53.656;10.076;2022-12-20T04:06:47;9.15;;;3.65;;
37647;SDS011;23490;53.656;10.076;2022-12-20T04:09:12;8.00;;;3.33;;
37647;SDS011;23490;53.656;10.076;2022-12-20T04:11:38;6.82;;;3.38;;
37647;SDS011;23490;53.656;10.076;2022-12-20T04:14:03;8.05;;;3.95;;
37647;SDS011;23490;53.656;10.076;2022-12-20T04:16:29;7.15;;;3.70;;
37647;SDS011;23490;53.656;10.076;2022-12-20T04:18:55;8.30;;;3.05;;
37647;SDS011;23490;53.656;10.076;2022-12-20T04:21:22;6.80;;;3.90;;
37647;SDS011;23490;53.656;10.076;2022-12-20T04:23:49;8.20;;;3.05;;
37647;SDS011;23490;53.656;10.076;2022-12-20T04:26:15;6.32;;;3.50;;
37647;SDS011;23490;53.656;10.076;2022-12-20T04:28:40;6.40;;;3.00;;
37647;SDS011;23490;53.656;10.076;2022-12-20T04:31:05;6.65;;;3.38;;
37647;SDS011;23490;53.656;10.076;2022-12-20T04:33:31;5.40;;;2.65;;
37647;SDS011;23490;53.656;10.076;2022-12-20T04:35:56;10.27;;;3.47;;
37647;SDS011;23490;53.656;10.076;2022-12-20T04:38:22;5.45;;;2.97;;
37647;SDS011;23490;53.656;10.076;2022-12-20T04:40:48;5.38;;;3.03;;
37647;SDS011;23490;53.656;10.076;2022-12-20T04:43:14;5.13;;;2.85;;
37647;SDS011;23490;53.656;10.076;2022-12-20T04:45:40;6.28;;;3.40;;
37647;SDS011;23490;53.656;10.076;2022-12-20T04:48:05;6.50;;;2.88;;
37647;SDS011;23490;53.656;10.076;2022-12-20T04:50:31;6.30;;;3.40;;
37647;SDS011;23490;53.656;10.076;2022-12-20T04:52:56;7.75;;;3.15;;
37647;SDS011;23490;53.656;10.076;2022-12-20T04:55:40;6.53;;;3.03;;
37647;SDS011;23490;53.656;10.076;2022-12-20T04:58:06;5.22;;;2.90;;
37647;SDS011;23490;53.656;10.076;2022-12-20T05:00:32;5.68;;;3.28;;
37647;SDS011;23490;53.656;10.076;2022-12-20T05:02:57;5.97;;;3.17;;
37647;SDS011;23490;53.656;10.076;2022-12-20T05:05:23;5.35;;;2.97;;
37647;SDS011;23490;53.656;10.076;2022-12-20T05:07:49;7.90;;;3.28;;
37647;SDS011;23490;53.656;10.076;2022-12-20T05:10:15;8.27;;;3.22;;
37647;SDS011;23490;53.656;10.076;2022-12-20T05:12:40;6.30;;;3.70;;
37647;SDS011;23490;53.656;10.076;2022-12-20T05:15:06;8.73;;;3.60;;
37647;SDS011;23490;53.656;10.076;2022-12-20T05:17:32;6.90;;;3.30;;
37647;SDS011;23490;53.656;10.076;2022-12-20T05:19:58;5.70;;;3.40;;
37647;SDS011;23490;53.656;10.076;2022-12-20T05:22:23;9.75;;;3.30;;
37647;SDS011;23490;53.656;10.076;2022-12-20T05:25:09;6.88;;;3.40;;
37647;SDS011;23490;53.656;10.076;2022-12-20T05:27:53;6.70;;;3.17;;
37647;SDS011;23490;53.656;10.076;2022-12-20T05:30:18;8.65;;;4.22;;
37647;SDS011;23490;53.656;10.076;2022-12-20T05:32:44;7.78;;;3.90;;
37647;SDS011;23490;53.656;10.076;2022-12-20T05:35:09;8.27;;;3.85;;
37647;SDS011;23490;53.656;10.076;2022-12-20T05:37:34;8.10;;;3.85;;
37647;SDS011;23490;53.656;10.076;2022-12-20T05:40:00;10.43;;;3.95;;
37647;SDS011;23490;53.656;10.076;2022-12-20T05:42:25;7.00;;;3.95;;
37647;SDS011;23490;53.656;10.076;2022-12-20T05:44:50;8.07;;;4.00;;
37647;SDS011;23490;53.656;10.076;2022-12-20T05:47:16;8.65;;;4.38;;
37647;SDS011;23490;53.656;10.076;2022-12-20T05:49:41;7.32;;;4.25;;
37647;SDS011;23490;53.656;10.076;2022-12-20T05:52:06;6.65;;;4.22;;
37647;SDS011;23490;53.656;10.076;2022-12-20T05:54:32;8.27;;;3.80;;
37647;SDS011;23490;53.656;10.076;2022-12-20T05:56:57;6.65;;;3.28;;
37647;SDS011;23490;53.656;10.076;2022-12-20T05:59:22;6.78;;;3.75;;
37647;SDS011;23490;53.656;10.076;2022-12-20T06:01:48;8.10;;;4.32;;
37647;SDS011;23490;53.656;10.076;2022-12-20T06:04:13;8.55;;;4.32;;
37647;SDS011;23490;53.656;10.076;2022-12-20T06:06:38;8.30;;;3.97;;
37647;SDS011;23490;53.656;10.076;2022-12-20T06:09:04;7.20;;;3.90;;
37647;SDS011;23490;53.656;10.076;2022-12-20T06:11:29;8.18;;;4.00;;
37647;SDS011;23490;53.656;10.076;2022-12-20T06:13:54;7.20;;;3.88;;
37647;SDS011;23490;53.656;10.076;2022-12-20T06:16:20;7.82;;;3.90;;
37647;SDS011;23490;53.656;10.076;2022-12-20T06:18:47;8.48;;;4.32;;
37647;SDS011;23490;53.656;10.076;2022-12-20T06:21:12;9.05;;;4.60;;
37647;SDS011;23490;53.656;10.076;2022-12-20T06:23:38;9.25;;;5.22;;
37647;SDS011;23490;53.656;10.076;2022-12-20T06:26:04;7.63;;;4.53;;
37647;SDS011;23490;53.656;10.076;2022-12-20T06:28:33;11.40;;;5.50;;
37647;SDS011;23490;53.656;10.076;2022-12-20T06:30:58;11.32;;;5.47;;
37647;SDS011;23490;53.656;10.076;2022-12-20T06:33:23;10.55;;;5.28;;
37647;SDS011;23490;53.656;10.076;2022-12-20T06:35:49;10.40;;;5.03;;
37647;SDS011;23490;53.656;10.076;2022-12-20T06:38:15;9.40;;;5.40;;
37647;SDS011;23490;53.656;10.076;2022-12-20T06:40:42;11.07;;;5.13;;
37647;SDS011;23490;53.656;10.076;2022-12-20T06:43:07;8.30;;;5.00;;
37647;SDS011;23490;53.656;10.076;2022-12-20T06:45:32;11.73;;;5.07;;
37647;SDS011;23490;53.656;10.076;2022-12-20T06:47:57;9.48;;;4.85;;
37647;SDS011;23490;53.656;10.076;2022-12-20T06:50:23;9.18;;;5.13;;
37647;SDS011;23490;53.656;10.076;2022-12-20T06:52:48;8.43;;;4.93;;
37647;SDS011;23490;53.656;10.076;2022-12-20T06:55:14;8.32;;;5.00;;
37647;SDS011;23490;53.656;10.076;2022-12-20T06:57:39;10.02;;;5.50;;
37647;SDS011;23490;53.656;10.076;2022-12-20T07:00:05;10.38;;;5.72;;
37647;SDS011;23490;53.656;10.076;2022-12-20T07:02:32;11.48;;;5.35;;
37647;SDS011;23490;53.656;10.076;2022-12-20T07:04:58;8.75;;;4.78;;
37647;SDS011;23490;53.656;10.076;2022-12-20T07:07:23;11.98;;;5.43;;
37647;SDS011;23490;53.656;10.076;2022-12-20T07:09:49;10.98;;;5.38;;
37647;SDS011;23490;53.656;10.076;2022-12-20T07:12:14;11.23;;;5.30;;
37647;SDS011;23490;53.656;10.076;2022-12-20T07:14:40;10.50;;;5.38;;
37647;SDS011;23490;53.656;10.076;2022-12-20T07:17:05;10.55;;;5.32;;
37647;SDS011;23490;53.656;10.076;2022-12-20T07:19:31;9.65;;;4.30;;
37647;SDS011;23490;53.656;10.076;2022-12-20T07:21:57;9.20;;;5.57;;
37647;SDS011;23490;53.656;10.076;2022-12-20T07:24:22;9.10;;;5.65;;
37647;SDS011;23490;53.656;10.076;2022-12-20T07:26:47;9.88;;;4.68;;
37647;SDS011;23490;53.656;10.076;2022-12-20T07:29:12;8.50;;;4.93;;
37647;SDS011;23490;53.656;10.076;2022-12-20T07:31:38;8.93;;;5.40;;
37647;SDS011;23490;53.656;10.076;2022-12-20T07:34:03;8.80;;;5.53;;
37647;SDS011;23490;53.656;10.076;2022-12-20T07:36:28;8.40;;;5.00;;
37647;SDS011;23490;53.656;10.076;2022-12-20T07:38:54;9.07;;;5.28;;
37647;SDS011;23490;53.656;10.076;2022-12-20T07:41:19;10.43;;;5.82;;
37647;SDS011;23490;53.656;10.076;2022-12-20T07:43:44;9.32;;;5.38;;
37647;SDS011;23490;53.656;10.076;2022-12-20T07:46:12;9.88;;;5.20;;
37647;SDS011;23490;53.656;10.076;2022-12-20T07:48:38;9.35;;;5.15;;
37647;SDS011;23490;53.656;10.076;2022-12-20T07:54:08;9.18;;;5.47;;
37647;SDS011;23490;53.656;10.076;2022-12-20T07:56:43;10.85;;;5.18;;
37647;SDS011;23490;53.656;10.076;2022-12-20T07:59:11;10.57;;;5.10;;
37647;SDS011;23490;53.656;10.076;2022-12-20T08:01:40;9.25;;;5.18;;
37647;SDS011;23490;53.656;10.076;2022-12-20T08:04:10;9.95;;;5.43;;
37647;SDS011;23490;53.656;10.076;2022-12-20T08:06:42;9.30;;;5.10;;
37647;SDS011;23490;53.656;10.076;2022-12-20T08:09:08;13.40;;;6.00;;
37647;SDS011;23490;53.656;10.076;2022-12-20T08:11:38;9.32;;;5.18;;
37647;SDS011;23490;53.656;10.076;2022-12-20T08:14:05;11.77;;;5.70;;
37647;SDS011;23490;53.656;10.076;2022-12-20T08:16:32;10.45;;;5.55;;
37647;SDS011;23490;53.656;10.076;2022-12-20T08:18:58;12.15;;;6.15;;
37647;SDS011;23490;53.656;10.076;2022-12-20T08:21:23;14.93;;;5.90;;
37647;SDS011;23490;53.656;10.076;2022-12-20T08:23:48;12.90;;;6.55;;
37647;SDS011;23490;53.656;10.076;2022-12-20T08:26:14;13.02;;;6.28;;
37647;SDS011;23490;53.656;10.076;2022-12-20T08:28:39;10.27;;;5.93;;
37647;SDS011;23490;53.656;10.076;2022-12-20T08:31:06;13.32;;;6.60;;
37647;SDS011;23490;53.656;10.076;2022-12-20T08:33:33;10.75;;;6.03;;
37647;SDS011;23490;53.656;10.076;2022-12-20T08:36:00;10.75;;;5.90;;
37647;SDS011;23490;53.656;10.076;2022-12-20T08:38:28;10.13;;;6.78;;
37647;SDS011;23490;53.656;10.076;2022-12-20T08:40:54;12.80;;;6.22;;
37647;SDS011;23490;53.656;10.076;2022-12-20T08:43:20;8.32;;;5.32;;
37647;SDS011;23490;53.656;10.076;2022-12-20T08:45:55;9.52;;;6.05;;
37647;SDS011;23490;53.656;10.076;2022-12-20T08:48:20;9.65;;;6.03;;
37647;SDS011;23490;53.656;10.076;2022-12-20T08:50:46;10.93;;;5.88;;
37647;SDS011;23490;53.656;10.076;2022-12-20T08:53:12;11.50;;;6.32;;
37647;SDS011;23490;53.656;10.076;2022-12-20T08:55:37;13.52;;;6.45;;
37647;SDS011;23490;53.656;10.076;2022-12-20T08:58:03;9.88;;;5.30;;
37647;SDS011;23490;53.656;10.076;2022-12-20T09:00:28;11.43;;;5.88;;
37647;SDS011;23490;53.656;10.076;2022-12-20T09:02:54;10.75;;;6.00;;
37647;SDS011;23490;53.656;10.076;2022-12-20T09:05:19;10.43;;;5.50;;
37647;SDS011;23490;53.656;10.076;2022-12-20T09:07:45;11.68;;;6.57;;
37647;SDS011;23490;53.656;10.076;2022-12-20T09:10:10;9.45;;;5.50;;
37647;SDS011;23490;53.656;10.076;2022-12-20T09:12:37;10.90;;;6.10;;
37647;SDS011;23490;53.656;10.076;2022-12-20T09:15:03;8.95;;;5.47;;
37647;SDS011;23490;53.656;10.076;2022-12-20T09:17:29;13.93;;;5.88;;
37647;SDS011;23490;53.656;10.076;2022-12-20T09:19:54;9.13;;;5.25;;
37647;SDS011;23490;53.656;10.076;2022-12-20T09:22:20;9.63;;;5.13;;
37647;SDS011;23490;53.656;10.076;2022-12-20T09:24:45;9.48;;;5.03;;
37647;SDS011;23490;53.656;10.076;2022-12-20T09:27:10;9.48;;;5.18;;
37647;SDS011;23490;53.656;10.076;2022-12-20T09:29:36;8.95;;;5.00;;
37647;SDS011;23490;53.656;10.076;2022-12-20T09:32:01;9.27;;;4.43;;
37647;SDS011;23490;53.656;10.076;2022-12-20T09:34:27;11.75;;;4.97;;
37647;SDS011;23490;53.656;10.076;2022-12-20T09:36:52;10.15;;;5.25;;
37647;SDS011;23490;53.656;10.076;2022-12-20T09:39:17;9.18;;;4.38;;
37647;SDS011;23490;53.656;10.076;2022-12-20T09:41:43;7.07;;;4.40;;
37647;SDS011;23490;53.656;10.076;2022-12-20T09:46:44;8.68;;;4.88;;
37647;SDS011;23490;53.656;10.076;2022-12-20T09:49:15;8.88;;;4.57;;
37647;SDS011;23490;53.656;10.076;2022-12-20T09:51:53;7.22;;;4.47;;
37647;SDS011;23490;53.656;10.076;2022-12-20T09:57:33;11.00;;;4.93;;
37647;SDS011;23490;53.656;10.076;2022-12-20T10:00:15;9.05;;;4.60;;
37647;SDS011;23490;53.656;10.076;2022-12-20T10:02:42;8.90;;;4.80;;
37647;SDS011;23490;53.656;10.076;2022-12-20T10:05:12;7.55;;;4.45;;
37647;SDS011;23490;53.656;10.076;2022-12-20T10:07:54;8.27;;;4.60;;
37647;SDS011;23490;53.656;10.076;2022-12-20T10:10:45;8.65;;;4.40;;
37647;SDS011;23490;53.656;10.076;2022-12-20T10:13:22;10.43;;;4.68;;
37647;SDS011;23490;53.656;10.076;2022-12-20T10:24:20;8.80;;;4.85;;
37647;SDS011;23490;53.656;10.076;2022-12-20T10:26:51;9.32;;;5.35;;
37647;SDS011;23490;53.656;10.076;2022-12-20T10:29:17;10.57;;;5.60;;
37647;SDS011;23490;53.656;10.076;2022-12-20T10:31:43;11.25;;;5.13;;
37647;SDS011;23490;53.656;10.076;2022-12-20T10:34:09;11.23;;;4.75;;
37647;SDS011;23490;53.656;10.076;2022-12-20T10:36:35;8.90;;;4.60;;
37647;SDS011;23490;53.656;10.076;2022-12-20T10:39:02;9.20;;;4.32;;
37647;SDS011;23490;53.656;10.076;2022-12-20T10:41:31;10.45;;;5.38;;
37647;SDS011;23490;53.656;10.076;2022-12-20T10:44:25;8.10;;;4.00;;
37647;SDS011;23490;53.656;10.076;2022-12-20T10:46:55;7.78;;;4.50;;
37647;SDS011;23490;53.656;10.076;2022-12-20T10:54:39;12.52;;;5.45;;
37647;SDS011;23490;53.656;10.076;2022-12-20T10:59:41;10.75;;;5.45;;
37647;SDS011;23490;53.656;10.076;2022-12-20T11:02:42;9.70;;;5.18;;
37647;SDS011;23490;53.656;10.076;2022-12-20T11:05:23;9.15;;;5.57;;
37647;SDS011;23490;53.656;10.076;2022-12-20T11:07:55;9.27;;;4.70;;
37647;SDS011;23490;53.656;10.076;2022-12-20T11:10:23;12.82;;;5.20;;
37647;SDS011;23490;53.656;10.076;2022-12-20T11:15:24;8.48;;;4.78;;
37647;SDS011;23490;53.656;10.076;2022-12-20T11:17:52;8.90;;;4.32;;
37647;SDS011;23490;53.656;10.076;2022-12-20T11:20:45;9.02;;;4.68;;
37647;SDS011;23490;53.656;10.076;2022-12-20T11:23:37;7.38;;;4.63;;
37647;SDS011;23490;53.656;10.076;2022-12-20T11:42:45;7.88;;;4.32;;
37647;SDS011;23490;53.656;10.076;2022-12-20T11:45:40;9.27;;;4.95;;
37647;SDS011;23490;53.656;10.076;2022-12-20T11:50:57;10.38;;;4.25;;
37647;SDS011;23490;53.656;10.076;2022-12-20T11:53:49;7.93;;;4.70;;
37647;SDS011;23490;53.656;10.076;2022-12-20T11:56:39;6.68;;;3.60;;
37647;SDS011;23490;53.656;10.076;2022-12-20T12:02:10;6.72;;;3.50;;
37647;SDS011;23490;53.656;10.076;2022-12-20T12:04:46;9.40;;;4.00;;
37647;SDS011;23490;53.656;10.076;2022-12-20T12:07:20;8.70;;;4.43;;
37647;SDS011;23490;53.656;10.076;2022-12-20T12:09:54;9.27;;;4.45;;
37647;SDS011;23490;53.656;10.076;2022-12-20T12:12:26;10.13;;;3.92;;
37647;SDS011;23490;53.656;10.076;2022-12-20T12:15:01;8.68;;;3.80;;
37647;SDS011;23490;53.656;10.076;2022-12-20T12:17:43;6.85;;;4.07;;
37647;SDS011;23490;53.656;10.076;2022-12-20T12:20:30;7.97;;;3.47;;
37647;SDS011;23490;53.656;10.076;2022-12-20T12:23:05;6.97;;;3.28;;
37647;SDS011;23490;53.656;10.076;2022-12-20T12:25:37;7.38;;;3.90;;
37647;SDS011;23490;53.656;10.076;2022-12-20T12:28:02;6.00;;;3.28;;
37647;SDS011;23490;53.656;10.076;2022-12-20T12:30:34;7.60;;;3.28;;
37647;SDS011;23490;53.656;10.076;2022-12-20T12:33:04;7.55;;;3.00;;
37647;SDS011;23490;53.656;10.076;2022-12-20T12:38:36;5.55;;;2.65;;
37647;SDS011;23490;53.656;10.076;2022-12-20T12:41:22;6.90;;;3.10;;
37647;SDS011;23490;53.656;10.076;2022-12-20T12:46:42;6.70;;;2.80;;
37647;SDS011;23490;53.656;10.076;2022-12-20T12:49:16;5.70;;;3.03;;
37647;SDS011;23490;53.656;10.076;2022-12-20T12:51:49;8.95;;;3.30;;
37647;SDS011;23490;53.656;10.076;2022-12-20T12:54:17;8.05;;;3.28;;
37647;SDS011;23490;53.656;10.076;2022-12-20T12:56:47;6.72;;;3.38;;
37647;SDS011;23490;53.656;10.076;2022-12-20T12:59:19;6.95;;;3.33;;
37647;SDS011;23490;53.656;10.076;2022-12-20T13:15:47;10.65;;;4.47;;
37647;SDS011;23490;53.656;10.076;2022-12-20T13:20:20;8.70;;;4.22;;
37647;SDS011;23490;53.656;10.076;2022-12-20T13:25:32;10.30;;;4.07;;
37647;SDS011;23490;53.656;10.076;2022-12-20T13:36:35;7.35;;;4.07;;
37647;SDS011;23490;53.656;10.076;2022-12-20T13:39:03;7.90;;;4.10;;
37647;SDS011;23490;53.656;10.076;2022-12-20T13:42:15;9.48;;;4.00;;
37647;SDS011;23490;53.656;10.076;2022-12-20T13:44:49;7.75;;;4.20;;
37647;SDS011;23490;53.656;10.076;2022-12-20T13:49:49;8.95;;;4.35;;
37647;SDS011;23490;53.656;10.076;2022-12-20T13:52:19;6.60;;;4.15;;
37647;SDS011;23490;53.656;10.076;2022-12-20T13:54:49;10.27;;;5.47;;
37647;SDS011;23490;53.656;10.076;2022-12-20T13:57:28;10.50;;;4.50;;
37647;SDS011;23490;53.656;10.076;2022-12-20T13:59:58;8.40;;;4.47;;
37647;SDS011;23490;53.656;10.076;2022-12-20T14:02:26;9.85;;;4.68;;
37647;SDS011;23490;53.656;10.076;2022-12-20T14:04:58;11.45;;;5.10;;
37647;SDS011;23490;53.656;10.076;2022-12-20T14:07:27;12.85;;;5.18;;
37647;SDS011;23490;53.656;10.076;2022-12-20T14:09:59;10.23;;;5.95;;
37647;SDS011;23490;53.656;10.076;2022-12-20T14:12:28;10.23;;;5.53;;
37647;SDS011;23490;53.656;10.076;2022-12-20T14:14:55;11.57;;;5.93;;
37647;SDS011;23490;53.656;10.076;2022-12-20T14:17:27;9.13;;;5.28;;
37647;SDS011;23490;53.656;10.076;2022-12-20T14:22:40;11.70;;;4.97;;
37647;SDS011;23490;53.656;10.076;2022-12-20T14:25:28;10.10;;;5.20;;
37647;SDS011;23490;53.656;10.076;2022-12-20T14:30:59;9.98;;;6.07;;
37647;SDS011;23490;53.656;10.076;2022-12-20T14:33:37;9.85;;;5.78;;
37647;SDS011;23490;53.656;10.076;2022-12-20T14:36:08;13.70;;;5.63;;
37647;SDS011;23490;53.656;10.076;2022-12-20T14:43:56;11.20;;;5.20;;
37647;SDS011;23490;53.656;10.076;2022-12-20T14:46:24;11.73;;;5.53;;
37647;SDS011;23490;53.656;10.076;2022-12-20T14:49:03;10.10;;;5.57;;
37647;SDS011;23490;53.656;10.076;2022-12-20T14:51:51;13.35;;;5.82;;
37647;SDS011;23490;53.656;10.076;2022-12-20T14:54:28;10.57;;;5.45;;
37647;SDS011;23490;53.656;10.076;2022-12-20T14:56:54;8.52;;;5.13;;
37647;SDS011;23490;53.656;10.076;2022-12-20T14:59:26;11.07;;;5.90;;
37647;SDS011;23490;53.656;10.076;2022-12-20T15:01:53;12.38;;;5.60;;
37647;SDS011;23490;53.656;10.076;2022-12-20T15:04:32;9.85;;;5.53;;
37647;SDS011;23490;53.656;10.076;2022-12-20T15:06:59;9.95;;;5.80;;
37647;SDS011;23490;53.656;10.076;2022-12-20T15:09:26;9.65;;;5.43;;
37647;SDS011;23490;53.656;10.076;2022-12-20T15:11:51;9.88;;;5.75;;
37647;SDS011;23490;53.656;10.076;2022-12-20T15:14:36;16.08;;;9.15;;
37647;SDS011;23490;53.656;10.076;2022-12-20T15:17:04;12.93;;;5.70;;
37647;SDS011;23490;53.656;10.076;2022-12-20T15:19:35;12.48;;;5.10;;
37647;SDS011;23490;53.656;10.076;2022-12-20T15:22:00;10.27;;;5.50;;
37647;SDS011;23490;53.656;10.076;2022-12-20T15:24:26;9.93;;;5.40;;
37647;SDS011;23490;53.656;10.076;2022-12-20T15:26:52;10.25;;;5.22;;
37647;SDS011;23490;53.656;10.076;2022-12-20T15:29:22;9.63;;;5.13;;
37647;SDS011;23490;53.656;10.076;2022-12-20T15:31:50;12.98;;;6.05;;
37647;SDS011;23490;53.656;10.076;2022-12-20T15:36:45;9.60;;;5.57;;
37647;SDS011;23490;53.656;10.076;2022-12-20T15:39:10;9.27;;;6.25;;
37647;SDS011;23490;53.656;10.076;2022-12-20T15:41:36;11.73;;;6.90;;
37647;SDS011;23490;53.656;10.076;2022-12-20T15:44:09;12.23;;;6.28;;
37647;SDS011;23490;53.656;10.076;2022-12-20T15:46:38;10.27;;;5.60;;
37647;SDS011;23490;53.656;10.076;2022-12-20T15:49:03;10.05;;;6.10;;
37647;SDS011;23490;53.656;10.076;2022-12-20T15:51:29;12.38;;;5.88;;
37647;SDS011;23490;53.656;10.076;2022-12-20T15:53:57;12.38;;;6.18;;
37647;SDS011;23490;53.656;10.076;2022-12-20T15:56:24;10.55;;;6.28;;
37647;SDS011;23490;53.656;10.076;2022-12-20T15:58:50;11.27;;;6.05;;
37647;SDS011;23490;53.656;10.076;2022-12-20T16:01:30;9.50;;;5.32;;
37647;SDS011;23490;53.656;10.076;2022-12-20T16:04:00;10.75;;;6.00;;
37647;SDS011;23490;53.656;10.076;2022-12-20T16:06:25;13.32;;;6.30;;
37647;SDS011;23490;53.656;10.076;2022-12-20T16:08:50;15.02;;;6.30;;
37647;SDS011;23490;53.656;10.076;2022-12-20T16:11:27;11.68;;;6.10;;
37647;SDS011;23490;53.656;10.076;2022-12-20T16:13:54;10.88;;;5.93;;
37647;SDS011;23490;53.656;10.076;2022-12-20T16:16:22;10.02;;;5.53;;
37647;SDS011;23490;53.656;10.076;2022-12-20T16:18:49;9.50;;;5.90;;
37647;SDS011;23490;53.656;10.076;2022-12-20T16:21:18;13.90;;;6.15;;
37647;SDS011;23490;53.656;10.076;2022-12-20T16:23:51;12.27;;;6.00;;
37647;SDS011;23490;53.656;10.076;2022-12-20T16:26:18;10.18;;;5.57;;
37647;SDS011;23490;53.656;10.076;2022-12-20T16:28:45;9.65;;;5.88;;
37647;SDS011;23490;53.656;10.076;2022-12-20T16:34:01;11.35;;;6.38;;
37647;SDS011;23490;53.656;10.076;2022-12-20T16:36:29;10.73;;;5.95;;
37647;SDS011;23490;53.656;10.076;2022-12-20T16:38:54;9.40;;;6.15;;